Time;durP1;ratioP1;P1;durP2;ratioP2;P2;SDS_P1;SDS_P2;PMS_P1;PMS_P2;Temp;Humidity;BMP_temperature;BMP_pressure;BME280_temperature;BME280_humidity;BME280_pressure;Samples;Min_cycle;Max_cycle;Signal;HPM_P1;HPM_P2
2022/01/29 00:01:46;;;;;;;13.10;8.60;;;;;;;;;;10197878;28;20041;-61
2022/01/29 00:06:44;;;;;;;12.23;8.45;;;;;;;;;;10198120;28;20069;-60
2022/01/29 00:11:43;;;;;;;25.48;8.80;;;;;;;;;;10192197;28;20065;-61
2022/01/29 00:16:41;;;;;;;11.45;8.10;;;;;;;;;;10193725;28;20076;-62
2022/01/29 00:21:41;;;;;;;13.48;9.10;;;;;;;;;;10200988;28;20085;-61
2022/01/29 00:26:39;;;;;;;12.13;8.75;;;;;;;;;;10194319;28;20076;-63
2022/01/29 00:31:38;;;;;;;11.88;7.80;;;;;;;;;;10192879;28;20081;-62
2022/01/29 00:36:36;;;;;;;12.73;9.18;;;;;;;;;;10192790;28;20080;-61
2022/01/29 00:41:36;;;;;;;11.40;8.70;;;;;;;;;;10192123;28;20100;-62
2022/01/29 00:46:38;;;;;;;13.95;8.60;;;;;;;;;;10193629;28;20476;-61
2022/01/29 00:51:37;;;;;;;12.82;8.27;;;;;;;;;;10193449;28;20074;-61
2022/01/29 00:56:36;;;;;;;14.45;9.52;;;;;;;;;;10192059;28;20066;-61
2022/01/29 01:01:35;;;;;;;13.05;9.57;;;;;;;;;;10191474;28;20084;-62
2022/01/29 01:06:33;;;;;;;12.60;8.75;;;;;;;;;;10191461;28;20104;-61
2022/01/29 01:11:31;;;;;;;11.73;8.73;;;;;;;;;;10192426;28;20180;-61
2022/01/29 01:16:31;;;;;;;11.50;8.07;;;;;;;;;;10191249;28;20070;-60
2022/01/29 01:21:29;;;;;;;11.27;8.88;;;;;;;;;;10191473;28;20080;-61
2022/01/29 01:26:27;;;;;;;14.38;10.43;;;;;;;;;;10193634;28;20070;-61
2022/01/29 01:31:26;;;;;;;14.77;10.02;;;;;;;;;;10190595;28;20507;-61
2022/01/29 01:36:26;;;;;;;12.23;8.85;;;;;;;;;;10186741;28;20101;-61
2022/01/29 01:41:26;;;;;;;13.40;8.10;;;;;;;;;;10187119;28;20444;-62
2022/01/29 01:46:25;;;;;;;12.73;7.93;;;;;;;;;;10186851;28;20073;-61
2022/01/29 01:51:23;;;;;;;13.32;8.15;;;;;;;;;;10188700;28;20077;-61
2022/01/29 01:56:23;;;;;;;11.65;8.38;;;;;;;;;;10195988;28;20104;-62
2022/01/29 02:01:21;;;;;;;10.45;9.00;;;;;;;;;;10194975;28;20073;-61
2022/01/29 02:06:20;;;;;;;18.63;9.10;;;;;;;;;;10206305;28;20087;-61
2022/01/29 02:11:18;;;;;;;12.75;9.52;;;;;;;;;;10190443;28;20523;-61
2022/01/29 02:16:18;;;;;;;11.40;8.15;;;;;;;;;;10190707;28;20406;-61
2022/01/29 02:21:17;;;;;;;15.13;10.52;;;;;;;;;;10183907;28;20073;-61
2022/01/29 02:26:16;;;;;;;14.90;10.10;;;;;;;;;;10189250;28;20081;-61
2022/01/29 02:31:15;;;;;;;13.25;10.32;;;;;;;;;;10191533;28;20082;-60
2022/01/29 02:36:13;;;;;;;19.73;11.45;;;;;;;;;;10188915;28;20089;-61
2022/01/29 02:41:11;;;;;;;13.52;10.07;;;;;;;;;;10187326;28;20069;-61
2022/01/29 02:46:20;;;;;;;11.60;8.77;;;;;;;;;;10187524;28;20072;-62
2022/01/29 02:51:19;;;;;;;17.10;9.88;;;;;;;;;;10188745;28;20069;-62
2022/01/29 02:56:18;;;;;;;12.43;7.85;;;;;;;;;;10189547;28;20080;-62
2022/01/29 03:01:19;;;;;;;11.65;7.70;;;;;;;;;;10189462;28;20085;-61
2022/01/29 03:06:17;;;;;;;10.48;6.90;;;;;;;;;;10188939;28;20093;-62
2022/01/29 03:11:19;;;;;;;11.98;8.18;;;;;;;;;;10189155;28;20161;-62
2022/01/29 03:16:19;;;;;;;14.50;8.25;;;;;;;;;;10187290;28;20070;-61
2022/01/29 03:21:17;;;;;;;13.52;8.30;;;;;;;;;;10187975;28;20074;-61
2022/01/29 03:26:16;;;;;;;12.57;8.63;;;;;;;;;;10188893;28;20089;-62
2022/01/29 03:31:14;;;;;;;10.98;7.43;;;;;;;;;;10194542;28;20042;-61
2022/01/29 03:36:14;;;;;;;11.73;8.25;;;;;;;;;;10196579;28;20085;-61
2022/01/29 03:41:13;;;;;;;11.80;7.50;;;;;;;;;;10193873;28;20085;-61
2022/01/29 03:46:12;;;;;;;12.93;9.18;;;;;;;;;;10193527;28;20096;-61
2022/01/29 03:51:10;;;;;;;13.27;8.35;;;;;;;;;;10199595;28;20081;-62
2022/01/29 03:56:10;;;;;;;11.43;8.60;;;;;;;;;;10196463;28;20065;-61
2022/01/29 04:01:08;;;;;;;10.98;8.25;;;;;;;;;;10195679;28;20074;-62
2022/01/29 04:06:06;;;;;;;13.35;8.10;;;;;;;;;;10196707;28;20100;-61
2022/01/29 04:11:05;;;;;;;11.45;7.93;;;;;;;;;;10195140;28;20081;-61
2022/01/29 04:16:05;;;;;;;13.90;9.35;;;;;;;;;;10195754;28;20072;-62
2022/01/29 04:21:04;;;;;;;13.00;8.23;;;;;;;;;;10201780;28;20086;-62
2022/01/29 04:26:03;;;;;;;13.10;9.30;;;;;;;;;;10194802;28;20510;-62
2022/01/29 04:31:07;;;;;;;16.10;10.18;;;;;;;;;;10195002;28;20081;-61
2022/01/29 04:36:07;;;;;;;16.17;10.57;;;;;;;;;;10194877;28;20133;-62
2022/01/29 04:41:06;;;;;;;25.92;16.75;;;;;;;;;;10193984;28;20106;-61
2022/01/29 04:46:04;;;;;;;16.27;9.63;;;;;;;;;;10194351;28;20065;-62
2022/01/29 04:51:03;;;;;;;16.92;9.77;;;;;;;;;;10193967;28;20125;-61
2022/01/29 04:56:03;;;;;;;17.90;10.00;;;;;;;;;;10193649;28;20479;-62
2022/01/29 05:01:02;;;;;;;14.25;9.68;;;;;;;;;;10194447;28;20077;-61
2022/01/29 05:06:01;;;;;;;30.20;17.52;;;;;;;;;;10193745;28;20070;-61
2022/01/29 05:11:06;;;;;;;13.77;10.80;;;;;;;;;;10193460;28;20080;-61
2022/01/29 05:16:26;;;;;;;11.52;8.27;;;;;;;;;;10193599;28;20070;-61
2022/01/29 05:26:53;;;;;;;10.85;7.63;;;;;;;;;;10190066;28;20411;-62
2022/01/29 05:31:52;;;;;;;17.27;11.15;;;;;;;;;;10193724;28;20429;-62
2022/01/29 05:36:50;;;;;;;17.25;11.65;;;;;;;;;;10191831;28;20068;-61
2022/01/29 05:41:50;;;;;;;21.42;12.65;;;;;;;;;;10195435;28;20517;-62
2022/01/29 05:46:48;;;;;;;11.82;9.23;;;;;;;;;;10193489;28;20088;-61
2022/01/29 05:51:47;;;;;;;13.55;9.43;;;;;;;;;;10193409;28;20078;-61
2022/01/29 05:56:45;;;;;;;13.90;11.27;;;;;;;;;;10191060;28;20069;-61
2022/01/29 06:01:45;;;;;;;13.75;10.32;;;;;;;;;;10191842;28;20084;-61
2022/01/29 06:06:44;;;;;;;17.58;11.93;;;;;;;;;;10193395;28;20472;-61
2022/01/29 06:11:42;;;;;;;20.33;13.13;;;;;;;;;;10190590;28;20494;-62
2022/01/29 06:16:40;;;;;;;17.70;9.55;;;;;;;;;;10206466;28;20073;-61
2022/01/29 06:21:40;;;;;;;92.10;47.05;;;;;;;;;;10196561;28;20069;-61
2022/01/29 06:26:38;;;;;;;20.73;12.48;;;;;;;;;;10202782;28;20045;-62
2022/01/29 06:31:37;;;;;;;16.00;10.52;;;;;;;;;;10193129;28;20100;-62
2022/01/29 06:36:35;;;;;;;14.35;9.85;;;;;;;;;;10190177;28;20104;-62
2022/01/29 06:41:35;;;;;;;24.85;13.07;;;;;;;;;;10203762;28;20072;-62
2022/01/29 06:46:33;;;;;;;19.48;13.13;;;;;;;;;;10201473;28;20069;-62
2022/01/29 06:51:32;;;;;;;22.42;14.23;;;;;;;;;;10196740;28;20093;-61
2022/01/29 06:56:30;;;;;;;12.77;9.73;;;;;;;;;;10193592;28;20050;-60
2022/01/29 07:01:30;;;;;;;30.58;16.27;;;;;;;;;;10191841;28;20085;-61
2022/01/29 07:06:28;;;;;;;41.55;25.15;;;;;;;;;;10189799;28;20065;-63
2022/01/29 07:11:26;;;;;;;24.70;14.45;;;;;;;;;;10191282;28;20085;-63
2022/01/29 07:16:25;;;;;;;47.20;26.05;;;;;;;;;;10180968;28;20084;-64
2022/01/29 07:21:24;;;;;;;17.67;12.10;;;;;;;;;;10188753;28;20093;-63
2022/01/29 07:26:23;;;;;;;29.15;18.75;;;;;;;;;;10189175;28;20066;-61
2022/01/29 07:31:21;;;;;;;23.30;12.80;;;;;;;;;;10187073;28;20066;-63
2022/01/29 07:36:20;;;;;;;21.38;13.32;;;;;;;;;;10185178;28;20093;-61
2022/01/29 07:41:19;;;;;;;19.20;13.48;;;;;;;;;;10184174;28;20560;-62
2022/01/29 07:46:17;;;;;;;14.88;12.23;;;;;;;;;;10192019;28;20070;-62
2022/01/29 07:51:21;;;;;;;18.67;13.02;;;;;;;;;;10186433;28;20074;-62
2022/01/29 07:56:21;;;;;;;18.95;13.68;;;;;;;;;;10188359;28;20456;-61
2022/01/29 08:01:19;;;;;;;27.10;15.60;;;;;;;;;;10189065;28;20096;-62
2022/01/29 08:06:19;;;;;;;18.85;12.88;;;;;;;;;;10189971;28;20101;-62
2022/01/29 08:11:18;;;;;;;22.45;15.82;;;;;;;;;;10188323;28;20069;-62
2022/01/29 08:16:18;;;;;;;19.67;14.65;;;;;;;;;;10191754;28;20104;-62
2022/01/29 08:21:17;;;;;;;21.05;14.50;;;;;;;;;;10196245;28;20535;-63
2022/01/29 08:26:16;;;;;;;29.10;19.77;;;;;;;;;;10194926;28;20542;-63
2022/01/29 08:31:14;;;;;;;27.48;13.52;;;;;;;;;;10194807;28;20133;-63
2022/01/29 08:36:14;;;;;;;29.52;16.23;;;;;;;;;;10198306;28;20073;-62
2022/01/29 08:41:12;;;;;;;22.13;13.55;;;;;;;;;;10211908;28;20088;-61
2022/01/29 08:46:10;;;;;;;24.63;16.88;;;;;;;;;;10223419;28;20070;-61
2022/01/29 08:51:09;;;;;;;15.32;9.85;;;;;;;;;;10204554;28;20080;-62
2022/01/29 08:56:09;;;;;;;22.30;14.60;;;;;;;;;;10199950;28;20073;-63
2022/01/29 09:01:13;;;;;;;25.40;16.80;;;;;;;;;;10197687;28;20516;-62
2022/01/29 09:06:12;;;;;;;28.40;18.02;;;;;;;;;;10211530;28;20083;-62
2022/01/29 09:11:12;;;;;;;17.30;12.00;;;;;;;;;;10194832;28;20062;-63
2022/01/29 09:16:10;;;;;;;28.00;19.65;;;;;;;;;;10191500;28;20057;-62
2022/01/29 09:21:09;;;;;;;22.05;14.93;;;;;;;;;;10195041;28;20084;-63
2022/01/29 09:26:07;;;;;;;45.45;18.27;;;;;;;;;;10188658;28;20072;-63
2022/01/29 09:31:07;;;;;;;15.25;12.68;;;;;;;;;;10193346;28;20117;-63
2022/01/29 09:36:05;;;;;;;22.80;15.80;;;;;;;;;;10201473;28;20173;-62
2022/01/29 09:41:04;;;;;;;14.10;10.93;;;;;;;;;;10188837;28;20487;-63
2022/01/29 09:46:03;;;;;;;17.67;14.23;;;;;;;;;;10193233;28;20084;-63
2022/01/29 09:51:05;;;;;;;13.88;10.38;;;;;;;;;;10193122;28;20065;-63
2022/01/29 09:56:03;;;;;;;17.02;12.60;;;;;;;;;;10193326;28;20076;-63
2022/01/29 10:01:01;;;;;;;63.40;46.63;;;;;;;;;;10192000;28;20503;-63
2022/01/29 10:06:01;;;;;;;22.10;15.55;;;;;;;;;;10196078;28;20070;-62
2022/01/29 10:11:02;;;;;;;77.25;20.52;;;;;;;;;;10191929;28;20156;-63
2022/01/29 10:16:08;;;;;;;52.58;26.30;;;;;;;;;;10191903;28;20076;-63
2022/01/29 10:21:11;;;;;;;19.70;13.38;;;;;;;;;;10191377;28;20082;-63
2022/01/29 10:26:11;;;;;;;85.13;39.47;;;;;;;;;;10197936;28;20069;-63
2022/01/29 10:31:09;;;;;;;18.20;11.13;;;;;;;;;;10198502;28;20069;-63
2022/01/29 10:36:08;;;;;;;21.45;12.48;;;;;;;;;;10210018;28;20077;-62
2022/01/29 10:41:14;;;;;;;16.13;11.93;;;;;;;;;;10190234;28;20073;-61
2022/01/29 10:46:24;;;;;;;20.23;10.88;;;;;;;;;;10188237;28;20057;-62
2022/01/29 10:51:22;;;;;;;21.50;13.73;;;;;;;;;;10187965;28;20073;-62
2022/01/29 10:56:22;;;;;;;13.93;9.23;;;;;;;;;;10209475;28;20088;-62
2022/01/29 11:01:22;;;;;;;11.48;10.25;;;;;;;;;;10215796;28;20077;-62
2022/01/29 11:06:26;;;;;;;16.83;13.60;;;;;;;;;;10204870;28;20080;-62
2022/01/29 11:11:26;;;;;;;22.33;14.60;;;;;;;;;;10206587;28;20482;-62
2022/01/29 11:16:42;;;;;;;20.27;11.48;;;;;;;;;;10194186;28;20530;-61
2022/01/29 11:21:41;;;;;;;10.60;6.50;;;;;;;;;;10206823;28;20074;-62
2022/01/29 11:26:42;;;;;;;18.88;13.18;;;;;;;;;;10189674;28;20076;-62
2022/01/29 11:31:40;;;;;;;19.08;11.90;;;;;;;;;;10189711;28;20053;-63
2022/01/29 11:36:57;;;;;;;25.20;14.52;;;;;;;;;;10188206;28;20524;-62
2022/01/29 11:42:10;;;;;;;22.25;11.43;;;;;;;;;;10190264;28;20076;-62
2022/01/29 11:47:23;;;;;;;13.40;9.77;;;;;;;;;;10183518;28;20157;-63
2022/01/29 11:52:23;;;;;;;25.38;15.68;;;;;;;;;;10195362;28;20483;-62
2022/01/29 11:57:22;;;;;;;31.85;18.73;;;;;;;;;;10198258;28;20077;-62
2022/01/29 12:02:42;;;;;;;48.80;27.83;;;;;;;;;;10201960;28;20069;-62
2022/01/29 12:08:13;;;;;;;16.52;9.25;;;;;;;;;;10192258;28;20100;-63
2022/01/29 12:13:13;;;;;;;21.48;13.45;;;;;;;;;;10200857;28;20085;-62
2022/01/29 12:18:28;;;;;;;12.20;9.35;;;;;;;;;;10199184;28;20252;-63
2022/01/29 12:23:28;;;;;;;11.90;7.93;;;;;;;;;;10193918;28;20073;-63
2022/01/29 12:28:26;;;;;;;25.95;12.52;;;;;;;;;;10194975;28;20073;-63
2022/01/29 12:33:25;;;;;;;18.77;9.43;;;;;;;;;;10195336;28;20117;-63
2022/01/29 12:38:25;;;;;;;32.17;18.83;;;;;;;;;;10196148;28;20086;-63
2022/01/29 12:43:28;;;;;;;31.85;20.38;;;;;;;;;;10194250;28;20096;-63
2022/01/29 12:48:26;;;;;;;17.80;12.10;;;;;;;;;;10194877;28;20080;-63
2022/01/29 12:53:24;;;;;;;18.95;11.93;;;;;;;;;;10194783;28;20070;-64
2022/01/29 12:58:28;;;;;;;14.35;10.60;;;;;;;;;;10193846;28;20531;-63
2022/01/29 13:03:28;;;;;;;101.28;51.25;;;;;;;;;;10193674;28;20092;-63
2022/01/29 13:08:26;;;;;;;9.38;6.93;;;;;;;;;;10194032;28;20088;-63
2022/01/29 13:13:29;;;;;;;17.42;10.70;;;;;;;;;;10198186;28;20088;-63
2022/01/29 13:18:28;;;;;;;15.55;8.93;;;;;;;;;;10193719;28;20080;-63
2022/01/29 13:23:32;;;;;;;24.65;15.25;;;;;;;;;;10197867;28;20104;-63
2022/01/29 13:28:38;;;;;;;12.00;7.95;;;;;;;;;;10197580;28;20474;-63
2022/01/29 13:33:36;;;;;;;19.88;13.80;;;;;;;;;;10197373;28;20085;-63
2022/01/29 13:38:39;;;;;;;17.55;10.73;;;;;;;;;;10193783;28;20081;-63
2022/01/29 13:43:40;;;;;;;21.98;12.95;;;;;;;;;;10192279;28;20077;-62
2022/01/29 13:48:42;;;;;;;16.35;11.02;;;;;;;;;;10186331;28;20084;-63
2022/01/29 13:53:42;;;;;;;40.40;30.88;;;;;;;;;;10186336;28;20523;-63
2022/01/29 13:58:59;;;;;;;29.50;22.30;;;;;;;;;;10187321;28;20053;-63
2022/01/29 14:03:58;;;;;;;22.25;11.63;;;;;;;;;;10192149;28;20168;-63
2022/01/29 14:09:17;;;;;;;35.70;20.02;;;;;;;;;;10210590;28;20462;-63
2022/01/29 14:14:15;;;;;;;30.38;20.88;;;;;;;;;;10184826;28;20081;-64
2022/01/29 14:19:16;;;;;;;41.83;25.40;;;;;;;;;;10202836;28;20065;-62
2022/01/29 14:24:14;;;;;;;16.75;10.48;;;;;;;;;;10191263;28;20100;-63
2022/01/29 14:29:12;;;;;;;91.10;55.50;;;;;;;;;;10191078;28;20074;-63
2022/01/29 14:34:11;;;;;;;19.15;12.15;;;;;;;;;;10190360;28;20073;-63
2022/01/29 14:39:10;;;;;;;26.83;16.10;;;;;;;;;;10190347;28;20081;-63
2022/01/29 14:44:09;;;;;;;58.67;34.65;;;;;;;;;;10190528;28;20088;-62
2022/01/29 14:49:08;;;;;;;51.58;31.02;;;;;;;;;;10192301;28;20188;-65
2022/01/29 14:54:07;;;;;;;40.70;28.40;;;;;;;;;;10193298;28;20077;-63
2022/01/29 14:59:07;;;;;;;60.17;38.60;;;;;;;;;;10196440;28;20081;-63
2022/01/29 15:04:05;;;;;;;63.70;48.22;;;;;;;;;;10197058;28;20520;-64
2022/01/29 15:09:04;;;;;;;43.90;35.28;;;;;;;;;;10199406;28;20092;-63
2022/01/29 15:14:03;;;;;;;57.38;41.13;;;;;;;;;;10207973;28;20078;-62
2022/01/29 15:19:03;;;;;;;69.75;40.33;;;;;;;;;;10192844;28;20081;-63
2022/01/29 15:24:03;;;;;;;57.53;38.00;;;;;;;;;;10198191;28;20103;-64
2022/01/29 15:29:05;;;;;;;78.65;47.28;;;;;;;;;;10206956;28;20072;-64
2022/01/29 15:34:05;;;;;;;85.20;53.40;;;;;;;;;;10218010;28;20080;-63
2022/01/29 15:39:04;;;;;;;99.97;58.83;;;;;;;;;;10196541;28;20093;-63
2022/01/29 15:44:23;;;;;;;107.70;63.65;;;;;;;;;;10197315;28;20085;-63
2022/01/29 15:49:22;;;;;;;151.07;79.93;;;;;;;;;;10198421;28;20069;-63
2022/01/29 15:54:21;;;;;;;240.13;110.70;;;;;;;;;;10198102;28;20057;-63
2022/01/29 15:59:19;;;;;;;226.70;97.43;;;;;;;;;;10213790;28;20077;-63
2022/01/29 16:04:17;;;;;;;191.00;117.97;;;;;;;;;;10196421;28;20088;-63
2022/01/29 16:09:19;;;;;;;128.70;75.32;;;;;;;;;;10201215;28;20077;-64
2022/01/29 16:14:17;;;;;;;94.50;53.75;;;;;;;;;;10197223;28;20077;-63
2022/01/29 16:19:16;;;;;;;114.30;71.60;;;;;;;;;;10193600;28;20058;-63
2022/01/29 16:24:15;;;;;;;108.40;58.08;;;;;;;;;;10195250;28;20507;-63
2022/01/29 16:29:14;;;;;;;217.13;118.13;;;;;;;;;;10197379;28;20506;-63
2022/01/29 16:34:13;;;;;;;138.32;77.57;;;;;;;;;;10197943;28;20084;-63
2022/01/29 16:39:11;;;;;;;82.95;50.47;;;;;;;;;;10193809;28;20085;-63
2022/01/29 16:44:10;;;;;;;60.40;38.53;;;;;;;;;;10201118;28;20069;-62
2022/01/29 16:49:09;;;;;;;75.65;46.47;;;;;;;;;;10222487;28;20804;-63
2022/01/29 16:54:08;;;;;;;95.65;64.63;;;;;;;;;;10218706;28;20073;-62
2022/01/29 16:59:06;;;;;;;117.28;69.05;;;;;;;;;;10222950;28;20069;-64
2022/01/29 17:04:04;;;;;;;143.52;83.93;;;;;;;;;;10207472;28;20081;-63
2022/01/29 17:09:04;;;;;;;194.30;110.07;;;;;;;;;;10202427;28;20070;-62
2022/01/29 17:14:03;;;;;;;60.35;39.25;;;;;;;;;;10208947;28;20554;-63
2022/01/29 17:19:02;;;;;;;107.30;65.68;;;;;;;;;;10196601;28;20180;-63
2022/01/29 17:24:00;;;;;;;145.57;82.65;;;;;;;;;;10193731;28;20078;-63
2022/01/29 17:29:00;;;;;;;123.05;66.97;;;;;;;;;;10192983;28;20078;-63
2022/01/29 17:33:58;;;;;;;258.42;115.90;;;;;;;;;;10192765;28;20081;-63
2022/01/29 17:38:57;;;;;;;118.55;67.45;;;;;;;;;;10192688;28;20096;-63
2022/01/29 17:43:55;;;;;;;51.80;35.47;;;;;;;;;;10193760;28;20077;-63
2022/01/29 17:48:55;;;;;;;63.10;38.47;;;;;;;;;;10192398;28;20100;-63
2022/01/29 17:53:53;;;;;;;52.70;32.28;;;;;;;;;;10192437;28;20062;-63
2022/01/29 17:58:51;;;;;;;27.05;18.83;;;;;;;;;;10192431;28;20085;-63
2022/01/29 18:03:50;;;;;;;28.95;18.73;;;;;;;;;;10192156;28;20077;-62
2022/01/29 18:08:49;;;;;;;25.70;16.88;;;;;;;;;;10192277;28;20077;-63
2022/01/29 18:13:48;;;;;;;21.38;14.80;;;;;;;;;;10191768;28;20427;-62
2022/01/29 18:18:47;;;;;;;21.83;12.07;;;;;;;;;;10191320;28;20081;-62
2022/01/29 18:23:45;;;;;;;30.00;17.42;;;;;;;;;;10192464;28;20045;-61
2022/01/29 18:28:45;;;;;;;29.90;18.42;;;;;;;;;;10185119;28;20456;-62
2022/01/29 18:33:44;;;;;;;32.47;21.90;;;;;;;;;;10191047;28;20168;-61
2022/01/29 18:38:43;;;;;;;45.10;28.17;;;;;;;;;;10190017;28;20077;-61
2022/01/29 18:43:41;;;;;;;27.20;19.30;;;;;;;;;;10190842;28;20057;-63
2022/01/29 18:48:41;;;;;;;32.88;22.33;;;;;;;;;;10184867;28;20519;-63
2022/01/29 18:53:40;;;;;;;31.40;21.65;;;;;;;;;;10184118;28;20113;-61
2022/01/29 18:58:41;;;;;;;29.27;18.80;;;;;;;;;;10183982;28;20526;-63
2022/01/29 19:03:42;;;;;;;22.95;16.25;;;;;;;;;;10191778;28;20073;-63
2022/01/29 19:08:43;;;;;;;23.02;16.35;;;;;;;;;;10190498;28;20504;-63
2022/01/29 19:13:46;;;;;;;19.33;13.55;;;;;;;;;;10184274;28;20082;-63
2022/01/29 19:18:46;;;;;;;15.63;12.75;;;;;;;;;;10185041;28;20061;-62
2022/01/29 19:23:44;;;;;;;23.27;15.68;;;;;;;;;;10189822;28;20085;-62
2022/01/29 19:28:43;;;;;;;70.28;38.78;;;;;;;;;;10189384;28;20107;-62
2022/01/29 19:33:41;;;;;;;22.73;14.05;;;;;;;;;;10189541;28;20070;-61
2022/01/29 19:38:41;;;;;;;27.90;17.38;;;;;;;;;;10182241;28;20486;-61
2022/01/29 19:43:39;;;;;;;24.17;14.23;;;;;;;;;;10183709;28;20499;-61
2022/01/29 19:48:37;;;;;;;24.90;16.15;;;;;;;;;;10189110;28;20479;-62
2022/01/29 19:53:36;;;;;;;33.80;20.15;;;;;;;;;;10189113;28;20077;-62
2022/01/29 19:58:36;;;;;;;21.02;15.40;;;;;;;;;;10188675;28;20502;-62
2022/01/29 20:03:34;;;;;;;21.95;15.48;;;;;;;;;;10189135;28;20073;-62
2022/01/29 20:08:37;;;;;;;16.83;13.73;;;;;;;;;;10188795;28;20521;-62
2022/01/29 20:13:37;;;;;;;17.13;13.18;;;;;;;;;;10195321;28;20131;-61
2022/01/29 20:18:35;;;;;;;23.42;15.88;;;;;;;;;;10195949;28;20066;-60
2022/01/29 20:23:34;;;;;;;14.98;12.32;;;;;;;;;;10198197;28;20070;-61
2022/01/29 20:28:32;;;;;;;18.05;13.45;;;;;;;;;;10195263;28;20507;-61
2022/01/29 20:33:31;;;;;;;15.68;11.93;;;;;;;;;;10195215;28;20073;-62
2022/01/29 20:38:30;;;;;;;22.27;15.50;;;;;;;;;;10194385;28;20081;-61
2022/01/29 20:43:28;;;;;;;28.30;17.58;;;;;;;;;;10194790;28;20524;-61
2022/01/29 20:48:27;;;;;;;21.42;13.75;;;;;;;;;;10208770;28;20077;-61
2022/01/29 20:53:26;;;;;;;23.48;15.52;;;;;;;;;;10193767;28;20069;-62
2022/01/29 20:58:25;;;;;;;24.27;14.85;;;;;;;;;;10194302;28;20542;-61
2022/01/29 21:03:24;;;;;;;21.08;12.20;;;;;;;;;;10194232;28;20641;-62
2022/01/29 21:08:24;;;;;;;36.17;19.90;;;;;;;;;;10209235;28;20111;-61
2022/01/29 21:13:25;;;;;;;26.88;14.25;;;;;;;;;;10194082;28;20115;-62
2022/01/29 21:18:24;;;;;;;21.75;15.30;;;;;;;;;;10193182;28;20100;-62
2022/01/29 21:23:22;;;;;;;19.85;13.88;;;;;;;;;;10192420;28;20092;-61
2022/01/29 21:28:20;;;;;;;16.88;12.35;;;;;;;;;;10193539;28;20073;-60
2022/01/29 21:33:20;;;;;;;18.98;12.88;;;;;;;;;;10197979;28;20080;-59
2022/01/29 21:38:18;;;;;;;18.05;12.93;;;;;;;;;;10196602;28;20077;-60
2022/01/29 21:43:17;;;;;;;33.58;20.70;;;;;;;;;;10197263;28;20188;-60
2022/01/29 21:48:15;;;;;;;26.02;16.00;;;;;;;;;;10192544;28;20073;-60
2022/01/29 21:53:15;;;;;;;26.42;14.30;;;;;;;;;;10193541;28;20073;-60
2022/01/29 21:58:13;;;;;;;24.05;15.95;;;;;;;;;;10192556;28;20074;-60
2022/01/29 22:03:15;;;;;;;30.23;16.27;;;;;;;;;;10191915;28;20069;-60
2022/01/29 22:08:15;;;;;;;23.50;14.77;;;;;;;;;;10191182;28;20541;-60
2022/01/29 22:13:13;;;;;;;24.27;13.65;;;;;;;;;;10191643;28;20503;-60
2022/01/29 22:18:12;;;;;;;18.00;12.05;;;;;;;;;;10191700;28;20081;-62
2022/01/29 22:23:10;;;;;;;13.60;9.93;;;;;;;;;;10189861;28;20102;-61
2022/01/29 22:28:10;;;;;;;19.40;12.32;;;;;;;;;;10191509;28;20085;-60
2022/01/29 22:33:08;;;;;;;27.52;14.82;;;;;;;;;;10189983;28;20073;-60
2022/01/29 22:38:06;;;;;;;18.80;11.30;;;;;;;;;;10189937;28;20557;-60
2022/01/29 22:43:05;;;;;;;23.52;14.57;;;;;;;;;;10191153;28;20069;-59
2022/01/29 22:48:05;;;;;;;18.33;11.75;;;;;;;;;;10191043;28;20077;-60
2022/01/29 22:53:04;;;;;;;31.70;16.45;;;;;;;;;;10190389;28;20069;-59
2022/01/29 22:58:03;;;;;;;17.83;12.05;;;;;;;;;;10189935;28;20096;-60
2022/01/29 23:03:01;;;;;;;13.23;10.07;;;;;;;;;;10188866;28;20081;-60
2022/01/29 23:08:01;;;;;;;11.95;9.25;;;;;;;;;;10196098;28;20069;-61
2022/01/29 23:13:08;;;;;;;15.93;10.75;;;;;;;;;;10195343;28;20069;-62
2022/01/29 23:18:07;;;;;;;15.35;11.50;;;;;;;;;;10191042;28;20073;-63
2022/01/29 23:23:15;;;;;;;15.38;11.13;;;;;;;;;;10192513;28;20065;-63
2022/01/29 23:28:24;;;;;;;11.10;9.63;;;;;;;;;;10205742;28;20085;-60
2022/01/29 23:33:41;;;;;;;11.55;9.27;;;;;;;;;;10216105;28;20077;-60
2022/01/29 23:38:41;;;;;;;12.10;8.85;;;;;;;;;;10213598;28;20077;-60
2022/01/29 23:43:47;;;;;;;15.23;10.38;;;;;;;;;;10226498;28;20057;-60
2022/01/29 23:54:02;;;;;;;12.02;9.10;;;;;;;;;;10207116;28;19967;-61
2022/01/29 23:59:00;;;;;;;11.70;9.73;;;;;;;;;;10198573;28;20530;-60
